Time;durP1;ratioP1;P1;durP2;ratioP2;P2;SDS_P1;SDS_P2;PMS_P1;PMS_P2;Temp;Humidity;BMP_temperature;BMP_pressure;BME280_temperature;BME280_humidity;BME280_pressure;Samples;Min_cycle;Max_cycle;Signal;HPM_P1;HPM_P2
2022/09/16 00:04:33;;;;;;;12.65;3.83;;;;;;;;;;10280706;28;20410;-63
2022/09/16 00:09:31;;;;;;;8.15;2.40;;;;;;;;;;10280914;28;20143;-63
2022/09/16 00:14:31;;;;;;;13.27;2.85;;;;;;;;;;10280190;28;20090;-62
2022/09/16 00:19:29;;;;;;;10.00;2.38;;;;;;;;;;10279384;28;20503;-62
2022/09/16 00:24:28;;;;;;;9.10;2.17;;;;;;;;;;10278981;28;20518;-63
2022/09/16 00:29:26;;;;;;;12.45;2.45;;;;;;;;;;10280047;28;20056;-63
2022/09/16 00:34:26;;;;;;;7.80;2.58;;;;;;;;;;10278625;28;20417;-63
2022/09/16 00:39:24;;;;;;;6.85;2.28;;;;;;;;;;10279580;28;20395;-63
2022/09/16 00:44:41;;;;;;;3.30;2.38;;;;;;;;;;10279293;28;20079;-63
2022/09/16 00:49:41;;;;;;;8.05;2.22;;;;;;;;;;10279069;28;20470;-63
2022/09/16 00:54:40;;;;;;;8.63;2.38;;;;;;;;;;10277555;28;20080;-63
2022/09/16 00:59:41;;;;;;;9.82;2.05;;;;;;;;;;10278009;28;20494;-62
2022/09/16 01:04:43;;;;;;;8.80;2.28;;;;;;;;;;10277960;28;20064;-63
2022/09/16 01:09:42;;;;;;;7.60;2.45;;;;;;;;;;10277007;28;20060;-63
2022/09/16 01:14:57;;;;;;;10.65;2.35;;;;;;;;;;10278603;28;20087;-64
2022/09/16 01:20:13;;;;;;;9.63;3.20;;;;;;;;;;10278009;28;20080;-63
2022/09/16 01:25:16;;;;;;;6.93;2.35;;;;;;;;;;10276779;28;20091;-63
2022/09/16 01:30:18;;;;;;;6.68;2.40;;;;;;;;;;10277826;28;20529;-64
2022/09/16 01:35:21;;;;;;;8.38;2.72;;;;;;;;;;10277797;28;20068;-64
2022/09/16 01:40:22;;;;;;;6.10;2.30;;;;;;;;;;10276978;28;20681;-63
2022/09/16 01:45:24;;;;;;;10.02;2.80;;;;;;;;;;10275967;28;20045;-65
2022/09/16 01:50:25;;;;;;;6.85;2.50;;;;;;;;;;10275474;28;20052;-65
2022/09/16 01:55:27;;;;;;;6.85;2.60;;;;;;;;;;10275811;28;20081;-65
2022/09/16 02:00:26;;;;;;;12.18;2.75;;;;;;;;;;10275833;28;20045;-65
2022/09/16 02:05:28;;;;;;;8.95;2.95;;;;;;;;;;10275178;28;20041;-65
2022/09/16 02:10:27;;;;;;;5.75;2.30;;;;;;;;;;10275117;28;20041;-64
2022/09/16 02:15:26;;;;;;;8.50;3.28;;;;;;;;;;10275890;28;20084;-65
2022/09/16 02:20:28;;;;;;;15.68;3.13;;;;;;;;;;10275152;28;20624;-64
2022/09/16 02:25:27;;;;;;;8.88;2.55;;;;;;;;;;10274832;28;20080;-64
2022/09/16 02:30:25;;;;;;;9.70;2.70;;;;;;;;;;10274406;28;20056;-63
2022/09/16 02:35:25;;;;;;;13.60;3.90;;;;;;;;;;10274407;28;20084;-67
2022/09/16 02:40:27;;;;;;;7.30;2.53;;;;;;;;;;10274157;28;20037;-65
2022/09/16 02:45:31;;;;;;;6.03;2.95;;;;;;;;;;10274732;28;20095;-63
2022/09/16 02:50:29;;;;;;;;;;;;;;;;;;10273276;28;20052;-64
2022/09/16 02:55:36;;;;;;;8.75;2.58;;;;;;;;;;10273959;28;20394;-64
2022/09/16 03:00:37;;;;;;;6.88;2.30;;;;;;;;;;10274282;28;20041;-65
2022/09/16 03:05:35;;;;;;;8.70;2.45;;;;;;;;;;10274386;28;20049;-66
2022/09/16 03:10:38;;;;;;;8.90;3.22;;;;;;;;;;10273731;28;20493;-65
2022/09/16 03:15:41;;;;;;;12.03;2.90;;;;;;;;;;10273383;28;20084;-66
2022/09/16 03:20:46;;;;;;;16.13;2.33;;;;;;;;;;10273265;28;20048;-65
2022/09/16 03:25:52;;;;;;;13.77;4.28;;;;;;;;;;10273960;28;20419;-65
2022/09/16 03:30:53;;;;;;;11.27;3.20;;;;;;;;;;10273494;28;20068;-65
2022/09/16 03:35:52;;;;;;;11.05;3.53;;;;;;;;;;10273454;28;20643;-65
2022/09/16 03:40:52;;;;;;;9.25;3.13;;;;;;;;;;10273423;28;20077;-65
2022/09/16 03:45:51;;;;;;;10.43;3.08;;;;;;;;;;10273246;28;20550;-65
2022/09/16 03:50:49;;;;;;;15.32;2.67;;;;;;;;;;10279957;28;20048;-65
2022/09/16 03:55:48;;;;;;;9.70;2.90;;;;;;;;;;10281245;28;20081;-65
2022/09/16 04:00:50;;;;;;;10.23;3.33;;;;;;;;;;10279017;28;20423;-64
2022/09/16 04:05:52;;;;;;;8.13;3.67;;;;;;;;;;10279031;28;20092;-66
2022/09/16 04:10:53;;;;;;;11.68;3.28;;;;;;;;;;10278024;28;20048;-66
2022/09/16 04:15:53;;;;;;;11.55;3.33;;;;;;;;;;10280662;28;20545;-64
2022/09/16 04:20:55;;;;;;;9.82;3.33;;;;;;;;;;10309895;28;20107;-65
2022/09/16 04:25:54;;;;;;;13.55;4.18;;;;;;;;;;10316749;28;20088;-65
2022/09/16 04:30:54;;;;;;;15.45;4.28;;;;;;;;;;10303095;28;20113;-65
2022/09/16 04:35:52;;;;;;;13.55;4.80;;;;;;;;;;10287305;28;20110;-65
2022/09/16 04:40:53;;;;;;;11.48;4.80;;;;;;;;;;10305855;28;20064;-65
2022/09/16 04:45:51;;;;;;;15.05;3.35;;;;;;;;;;10313452;28;20080;-65
2022/09/16 04:50:51;;;;;;;9.38;3.20;;;;;;;;;;10316194;28;20461;-66
2022/09/16 04:55:49;;;;;;;11.27;3.92;;;;;;;;;;10317717;28;20079;-65
2022/09/16 05:00:47;;;;;;;16.00;3.70;;;;;;;;;;10300810;28;20072;-65
2022/09/16 05:05:45;;;;;;;9.90;3.67;;;;;;;;;;10288337;28;20504;-64
2022/09/16 05:10:46;;;;;;;11.60;3.88;;;;;;;;;;10282503;28;20087;-66
2022/09/16 05:15:44;;;;;;;12.38;3.10;;;;;;;;;;10286487;28;20084;-65
2022/09/16 05:20:48;;;;;;;17.25;4.45;;;;;;;;;;10291070;28;20099;-65
2022/09/16 05:25:47;;;;;;;16.80;4.70;;;;;;;;;;10296307;28;20460;-65
2022/09/16 05:30:46;;;;;;;13.05;5.32;;;;;;;;;;10296049;28;20045;-64
2022/09/16 05:35:44;;;;;;;19.00;5.53;;;;;;;;;;10295513;28;20083;-65
2022/09/16 05:40:42;;;;;;;11.15;3.60;;;;;;;;;;10293345;28;20077;-65
2022/09/16 05:45:42;;;;;;;9.85;4.20;;;;;;;;;;10293612;28;20099;-64
2022/09/16 05:50:40;;;;;;;12.32;4.28;;;;;;;;;;10292259;28;20080;-67
2022/09/16 05:55:39;;;;;;;11.77;4.38;;;;;;;;;;10311857;28;20072;-65
2022/09/16 06:00:37;;;;;;;12.77;3.28;;;;;;;;;;10314533;28;20072;-65
2022/09/16 06:05:36;;;;;;;20.55;4.00;;;;;;;;;;10314017;28;20051;-66
2022/09/16 06:10:41;;;;;;;12.30;3.63;;;;;;;;;;10311345;28;20072;-65
2022/09/16 06:15:39;;;;;;;20.08;4.78;;;;;;;;;;10311420;28;20518;-66
2022/09/16 06:20:39;;;;;;;11.40;4.32;;;;;;;;;;10313869;28;20048;-66
2022/09/16 06:25:37;;;;;;;14.80;4.65;;;;;;;;;;10316449;28;20059;-64
2022/09/16 06:30:35;;;;;;;7.68;4.78;;;;;;;;;;10317206;28;20056;-64
2022/09/16 06:35:34;;;;;;;16.30;3.83;;;;;;;;;;10315934;28;20661;-65
2022/09/16 06:40:34;;;;;;;10.25;3.08;;;;;;;;;;10315751;28;20421;-65
2022/09/16 06:45:32;;;;;;;15.55;5.55;;;;;;;;;;10314971;28;20520;-65
2022/09/16 06:50:31;;;;;;;14.50;4.38;;;;;;;;;;10315568;28;20055;-65
2022/09/16 06:55:29;;;;;;;10.80;2.60;;;;;;;;;;10315226;28;20111;-64
2022/09/16 07:00:29;;;;;;;27.30;15.00;;;;;;;;;;10315400;28;20044;-65
2022/09/16 07:05:27;;;;;;;10.50;2.70;;;;;;;;;;10314681;28;20045;-64
2022/09/16 07:10:25;;;;;;;13.90;3.05;;;;;;;;;;10328090;28;20421;-65
2022/09/16 07:15:23;;;;;;;5.72;2.22;;;;;;;;;;10314339;28;20063;-66
2022/09/16 07:20:23;;;;;;;12.45;2.85;;;;;;;;;;10314359;28;20045;-66
2022/09/16 07:25:21;;;;;;;5.60;2.03;;;;;;;;;;10320596;28;20060;-66
2022/09/16 07:30:19;;;;;;;6.65;2.05;;;;;;;;;;10321899;28;20490;-66
2022/09/16 07:35:18;;;;;;;6.90;2.63;;;;;;;;;;10321518;28;20084;-66
2022/09/16 07:40:17;;;;;;;6.28;2.95;;;;;;;;;;10322426;28;20048;-66
2022/09/16 07:45:16;;;;;;;11.32;3.50;;;;;;;;;;10322340;28;20048;-67
2022/09/16 07:50:14;;;;;;;4.50;2.47;;;;;;;;;;10322273;28;20072;-65
2022/09/16 07:55:15;;;;;;;7.75;1.60;;;;;;;;;;10321760;28;20052;-68
2022/09/16 08:00:16;;;;;;;10.75;2.20;;;;;;;;;;10321791;28;20071;-66
2022/09/16 08:05:15;;;;;;;8.43;2.10;;;;;;;;;;10321175;28;20048;-66
2022/09/16 08:10:13;;;;;;;8.75;2.30;;;;;;;;;;10320383;28;20509;-67
2022/09/16 08:15:11;;;;;;;8.82;2.13;;;;;;;;;;10321079;28;20045;-66
2022/09/16 08:20:11;;;;;;;6.15;2.22;;;;;;;;;;10320826;28;20450;-66
2022/09/16 08:25:09;;;;;;;8.13;1.65;;;;;;;;;;10320366;28;20057;-67
2022/09/16 08:30:08;;;;;;;10.73;1.80;;;;;;;;;;10319645;28;20083;-65
2022/09/16 08:35:07;;;;;;;10.57;2.30;;;;;;;;;;10320371;28;20051;-66
2022/09/16 08:40:07;;;;;;;7.85;1.50;;;;;;;;;;10320351;28;20421;-65
2022/09/16 08:45:09;;;;;;;9.18;1.80;;;;;;;;;;10319397;28;20044;-65
2022/09/16 08:50:12;;;;;;;4.80;2.45;;;;;;;;;;10319969;28;20045;-66
2022/09/16 08:55:14;;;;;;;10.67;2.10;;;;;;;;;;10319577;28;20075;-67
2022/09/16 09:00:14;;;;;;;16.00;2.05;;;;;;;;;;10317680;28;20044;-65
2022/09/16 09:05:17;;;;;;;10.05;1.40;;;;;;;;;;10319356;28;20410;-70
2022/09/16 09:10:23;;;;;;;5.40;1.13;;;;;;;;;;10319339;28;20037;-66
2022/09/16 09:15:27;;;;;;;5.88;1.30;;;;;;;;;;10317753;28;20047;-65
2022/09/16 09:20:30;;;;;;;3.85;0.95;;;;;;;;;;10317452;28;20083;-66
2022/09/16 09:25:34;;;;;;;4.97;1.80;;;;;;;;;;10317088;28;20078;-66
2022/09/16 09:30:34;;;;;;;6.32;2.88;;;;;;;;;;10317357;28;20051;-66
2022/09/16 09:35:39;;;;;;;5.78;1.90;;;;;;;;;;10316958;28;20056;-67
2022/09/16 09:40:42;;;;;;;8.63;2.15;;;;;;;;;;10316963;28;20076;-66
2022/09/16 09:45:41;;;;;;;12.18;2.30;;;;;;;;;;10316145;28;20446;-66
2022/09/16 09:50:42;;;;;;;3.28;2.13;;;;;;;;;;10317108;28;20075;-68
2022/09/16 09:55:42;;;;;;;8.52;2.38;;;;;;;;;;10316523;28;20041;-65
2022/09/16 10:00:40;;;;;;;3.90;2.55;;;;;;;;;;10316768;28;20091;-65
2022/09/16 10:05:38;;;;;;;5.40;3.20;;;;;;;;;;10316659;28;20048;-66
2022/09/16 10:10:39;;;;;;;7.82;2.47;;;;;;;;;;10315954;28;20048;-66
2022/09/16 10:15:39;;;;;;;7.53;2.75;;;;;;;;;;10316057;28;20052;-66
2022/09/16 10:20:39;;;;;;;3.88;1.92;;;;;;;;;;10315241;28;20080;-66
2022/09/16 10:25:37;;;;;;;6.10;1.98;;;;;;;;;;10315793;28;20423;-66
2022/09/16 10:30:45;;;;;;;6.40;2.00;;;;;;;;;;10315824;28;20036;-66
2022/09/16 10:35:50;;;;;;;8.40;1.63;;;;;;;;;;10315536;28;20066;-67
2022/09/16 10:40:53;;;;;;;3.90;1.50;;;;;;;;;;10315947;28;20072;-66
2022/09/16 10:45:54;;;;;;;5.28;2.13;;;;;;;;;;10313901;28;20063;-66
2022/09/16 10:50:53;;;;;;;4.75;2.17;;;;;;;;;;10315730;28;20294;-65
2022/09/16 10:55:58;;;;;;;16.17;2.22;;;;;;;;;;10315746;28;20080;-66
2022/09/16 11:01:07;;;;;;;7.93;2.72;;;;;;;;;;10323340;28;20087;-66
2022/09/16 11:06:20;;;;;;;5.55;1.55;;;;;;;;;;10323324;28;20044;-66
2022/09/16 11:11:26;;;;;;;8.27;3.60;;;;;;;;;;10322763;28;20052;-65
2022/09/16 11:16:47;;;;;;;7.95;2.90;;;;;;;;;;10322751;28;20052;-66
2022/09/16 11:21:54;;;;;;;6.10;2.10;;;;;;;;;;10322579;28;20044;-66
2022/09/16 11:26:57;;;;;;;7.15;2.08;;;;;;;;;;10322915;28;20442;-66
2022/09/16 11:31:59;;;;;;;7.47;2.50;;;;;;;;;;10322004;28;20431;-66
2022/09/16 11:37:03;;;;;;;9.67;2.30;;;;;;;;;;10322266;28;20407;-66
2022/09/16 11:42:04;;;;;;;8.82;2.28;;;;;;;;;;10321594;28;20085;-66
2022/09/16 11:47:10;;;;;;;6.78;2.22;;;;;;;;;;10321510;28;20036;-66
2022/09/16 11:52:15;;;;;;;4.00;2.13;;;;;;;;;;10321801;28;20138;-66
2022/09/16 11:57:15;;;;;;;8.40;1.65;;;;;;;;;;10321623;28;20388;-67
2022/09/16 12:02:17;;;;;;;4.63;2.63;;;;;;;;;;10321404;28;20048;-66
2022/09/16 12:07:18;;;;;;;5.40;2.43;;;;;;;;;;10319868;28;20044;-65
2022/09/16 12:12:18;;;;;;;10.55;2.08;;;;;;;;;;10321107;28;20052;-66
2022/09/16 12:17:19;;;;;;;4.85;2.00;;;;;;;;;;10321124;28;20490;-66
2022/09/16 12:22:20;;;;;;;8.30;2.53;;;;;;;;;;10320087;28;20048;-66
2022/09/16 12:27:26;;;;;;;10.00;2.80;;;;;;;;;;10320570;28;20489;-66
2022/09/16 12:32:29;;;;;;;13.43;4.72;;;;;;;;;;10320296;28;20051;-64
2022/09/16 12:37:27;;;;;;;;;;;;;;;;;;10319780;28;20052;-65
2022/09/16 12:42:48;;;;;;;5.13;1.85;;;;;;;;;;10319128;28;19920;-67
2022/09/16 12:48:04;;;;;;;6.50;1.90;;;;;;;;;;10320052;28;20505;-66
2022/09/16 12:53:11;;;;;;;9.07;2.58;;;;;;;;;;10309970;28;20502;-66
2022/09/16 12:58:22;;;;;;;5.97;1.80;;;;;;;;;;10319419;28;20080;-67
2022/09/16 13:03:22;;;;;;;5.68;2.50;;;;;;;;;;10319089;28;20040;-66
2022/09/16 13:08:25;;;;;;;8.55;2.65;;;;;;;;;;10319105;28;20048;-66
2022/09/16 13:13:29;;;;;;;8.32;3.03;;;;;;;;;;10318171;28;20048;-65
2022/09/16 13:18:38;;;;;;;8.45;3.25;;;;;;;;;;10318180;28;20075;-67
2022/09/16 13:23:42;;;;;;;5.38;2.25;;;;;;;;;;10318224;28;20513;-67
2022/09/16 13:28:42;;;;;;;8.35;2.40;;;;;;;;;;10317294;28;20044;-67
2022/09/16 13:33:42;;;;;;;11.00;2.10;;;;;;;;;;10301839;28;20029;-66
2022/09/16 13:38:43;;;;;;;7.25;2.67;;;;;;;;;;10298342;28;20079;-67
2022/09/16 13:43:52;;;;;;;7.05;2.53;;;;;;;;;;10289469;28;20056;-66
2022/09/16 13:48:55;;;;;;;8.48;2.63;;;;;;;;;;10294569;28;20084;-66
2022/09/16 13:54:03;;;;;;;5.47;2.28;;;;;;;;;;10313108;28;20451;-66
2022/09/16 13:59:05;;;;;;;8.27;2.40;;;;;;;;;;10313117;28;20072;-65
2022/09/16 14:04:09;;;;;;;6.03;2.40;;;;;;;;;;10312786;28;20055;-66
2022/09/16 14:09:13;;;;;;;10.38;3.10;;;;;;;;;;10313953;28;20083;-65
2022/09/16 14:14:14;;;;;;;8.68;3.92;;;;;;;;;;10312612;28;20075;-65
2022/09/16 14:19:35;;;;;;;10.68;3.15;;;;;;;;;;10312651;28;20079;-65
2022/09/16 14:24:35;;;;;;;7.20;4.10;;;;;;;;;;10314837;28;20048;-65
2022/09/16 14:29:33;;;;;;;11.90;4.40;;;;;;;;;;10314431;28;20053;-66
2022/09/16 14:34:33;;;;;;;9.23;3.30;;;;;;;;;;10315529;28;20040;-66
2022/09/16 14:39:32;;;;;;;7.82;4.18;;;;;;;;;;10315131;28;20510;-65
2022/09/16 14:44:33;;;;;;;13.60;5.00;;;;;;;;;;10316268;28;20068;-66
2022/09/16 14:49:32;;;;;;;14.00;3.83;;;;;;;;;;10316142;28;20040;-67
2022/09/16 14:54:30;;;;;;;17.42;4.53;;;;;;;;;;10314842;28;20486;-65
2022/09/16 14:59:31;;;;;;;6.55;2.88;;;;;;;;;;10315498;28;20544;-65
2022/09/16 15:04:32;;;;;;;8.88;3.28;;;;;;;;;;10315632;28;20059;-66
2022/09/16 15:09:34;;;;;;;15.07;4.18;;;;;;;;;;10313802;28;20075;-66
2022/09/16 15:14:37;;;;;;;14.45;3.58;;;;;;;;;;10315174;28;20063;-66
2022/09/16 15:19:38;;;;;;;9.73;3.95;;;;;;;;;;10315070;28;20076;-66
2022/09/16 15:24:39;;;;;;;11.77;3.63;;;;;;;;;;10314530;28;20052;-66
2022/09/16 15:29:48;;;;;;;8.80;2.67;;;;;;;;;;10314425;28;20459;-65
2022/09/16 15:34:48;;;;;;;8.43;2.90;;;;;;;;;;10315107;28;20047;-66
2022/09/16 15:39:46;;;;;;;9.13;3.22;;;;;;;;;;10314645;28;20091;-65
2022/09/16 15:44:47;;;;;;;10.18;3.22;;;;;;;;;;10317890;28;20056;-66
2022/09/16 15:49:48;;;;;;;14.52;3.10;;;;;;;;;;10295827;28;20073;-65
2022/09/16 15:54:48;;;;;;;15.57;3.70;;;;;;;;;;10278555;28;20056;-64
2022/09/16 15:59:56;;;;;;;8.98;2.85;;;;;;;;;;10280128;28;20490;-64
2022/09/16 16:05:06;;;;;;;8.35;3.17;;;;;;;;;;10280805;28;20144;-62
2022/09/16 16:10:12;;;;;;;10.65;3.70;;;;;;;;;;10277418;28;20041;-64
2022/09/16 16:15:10;;;;;;;14.65;4.13;;;;;;;;;;10280592;28;20528;-63
2022/09/16 16:20:11;;;;;;;11.52;3.85;;;;;;;;;;10280503;28;20083;-63
2022/09/16 16:25:09;;;;;;;8.20;3.17;;;;;;;;;;10280105;28;20514;-63
2022/09/16 16:30:08;;;;;;;14.27;4.88;;;;;;;;;;10297469;28;20072;-63
2022/09/16 16:35:07;;;;;;;12.82;4.15;;;;;;;;;;10297495;28;20065;-61
2022/09/16 16:40:07;;;;;;;9.38;3.78;;;;;;;;;;10299714;28;20522;-61
2022/09/16 16:45:06;;;;;;;11.32;3.72;;;;;;;;;;10282725;28;20510;-63
2022/09/16 16:50:05;;;;;;;9.00;3.90;;;;;;;;;;10281781;28;20123;-61
2022/09/16 16:55:03;;;;;;;15.05;7.18;;;;;;;;;;10284847;28;20100;-63
2022/09/16 17:00:03;;;;;;;11.52;5.30;;;;;;;;;;10287546;28;20850;-63
2022/09/16 17:05:02;;;;;;;9.20;4.15;;;;;;;;;;10292297;28;20084;-63
2022/09/16 17:10:00;;;;;;;14.30;3.00;;;;;;;;;;10304080;28;20052;-62
2022/09/16 17:14:58;;;;;;;15.30;3.63;;;;;;;;;;10302736;28;20059;-62
2022/09/16 17:19:58;;;;;;;17.90;4.60;;;;;;;;;;10296672;28;20079;-62
2022/09/16 17:24:56;;;;;;;11.45;3.60;;;;;;;;;;10276044;28;20049;-62
2022/09/16 17:29:54;;;;;;;15.50;4.68;;;;;;;;;;10275017;28;20041;-62
2022/09/16 17:34:52;;;;;;;9.13;3.78;;;;;;;;;;10289527;28;20077;-63
2022/09/16 17:39:52;;;;;;;9.45;3.63;;;;;;;;;;10292832;28;20083;-63
2022/09/16 17:44:50;;;;;;;7.75;3.00;;;;;;;;;;10317619;28;20047;-63
2022/09/16 17:49:49;;;;;;;11.32;3.55;;;;;;;;;;10308907;28;20080;-63
2022/09/16 17:54:47;;;;;;;20.92;3.83;;;;;;;;;;10296899;28;20048;-64
2022/09/16 17:59:46;;;;;;;7.60;2.55;;;;;;;;;;10294452;28;20072;-64
2022/09/16 18:04:46;;;;;;;9.50;3.00;;;;;;;;;;10296254;28;20084;-63
2022/09/16 18:09:45;;;;;;;10.32;4.43;;;;;;;;;;10294908;28;20036;-64
2022/09/16 18:14:43;;;;;;;8.15;2.58;;;;;;;;;;10300111;28;20049;-63
2022/09/16 18:19:43;;;;;;;11.63;3.58;;;;;;;;;;10282858;28;20084;-64
2022/09/16 18:24:41;;;;;;;7.20;2.63;;;;;;;;;;10279968;28;20079;-64
2022/09/16 18:29:40;;;;;;;8.18;2.47;;;;;;;;;;10315585;28;20063;-63
2022/09/16 18:34:39;;;;;;;10.60;3.22;;;;;;;;;;10315511;28;20548;-63
2022/09/16 18:39:39;;;;;;;7.90;3.00;;;;;;;;;;10316181;28;20478;-63
2022/09/16 18:44:37;;;;;;;12.15;3.33;;;;;;;;;;10316178;28;20084;-64
2022/09/16 18:49:35;;;;;;;7.85;3.30;;;;;;;;;;10315181;28;20041;-64
2022/09/16 18:54:34;;;;;;;8.25;2.85;;;;;;;;;;10315898;28;20095;-65
2022/09/16 18:59:35;;;;;;;7.18;2.85;;;;;;;;;;10315768;28;20052;-63
2022/09/16 19:04:37;;;;;;;11.05;2.33;;;;;;;;;;10315604;28;20044;-64
2022/09/16 19:09:36;;;;;;;9.27;3.22;;;;;;;;;;10315975;28;20040;-64
2022/09/16 19:14:35;;;;;;;7.47;2.60;;;;;;;;;;10315797;28;20036;-64
2022/09/16 19:19:34;;;;;;;10.35;2.88;;;;;;;;;;10320473;28;20395;-63
2022/09/16 19:24:32;;;;;;;12.05;2.53;;;;;;;;;;10322060;28;20633;-64
2022/09/16 19:29:31;;;;;;;6.95;2.50;;;;;;;;;;10322662;28;20104;-64
2022/09/16 19:34:31;;;;;;;7.18;2.35;;;;;;;;;;10322871;28;20048;-63
2022/09/16 19:39:29;;;;;;;11.30;3.03;;;;;;;;;;10322896;28;20473;-64
2022/09/16 19:44:27;;;;;;;9.93;2.83;;;;;;;;;;10322721;28;20458;-63
2022/09/16 19:49:25;;;;;;;6.05;2.55;;;;;;;;;;10322139;28;20044;-63
2022/09/16 19:54:25;;;;;;;7.35;2.85;;;;;;;;;;10322299;28;20056;-64
2022/09/16 19:59:23;;;;;;;7.15;3.08;;;;;;;;;;10322008;28;20075;-63
2022/09/16 20:04:22;;;;;;;12.00;2.97;;;;;;;;;;10321517;28;20107;-64
2022/09/16 20:09:20;;;;;;;9.20;2.83;;;;;;;;;;10320058;28;20060;-61
2022/09/16 20:14:20;;;;;;;9.13;2.55;;;;;;;;;;10292172;28;20521;-63
2022/09/16 20:19:19;;;;;;;8.23;3.35;;;;;;;;;;10281125;28;20049;-64
2022/09/16 20:24:19;;;;;;;8.07;2.17;;;;;;;;;;10279794;28;20065;-64
2022/09/16 20:29:17;;;;;;;8.57;2.58;;;;;;;;;;10278502;28;20095;-63
2022/09/16 20:34:17;;;;;;;7.20;2.63;;;;;;;;;;10279729;28;20040;-62
2022/09/16 20:39:15;;;;;;;6.22;2.42;;;;;;;;;;10279946;28;20053;-64
2022/09/16 20:44:14;;;;;;;3.42;2.15;;;;;;;;;;10279286;28;20510;-64
2022/09/16 20:49:14;;;;;;;6.35;2.10;;;;;;;;;;10279482;28;20487;-64
2022/09/16 20:54:14;;;;;;;10.30;1.98;;;;;;;;;;10279128;28;20052;-64
2022/09/16 20:59:13;;;;;;;10.50;2.55;;;;;;;;;;10279049;28;20056;-64
2022/09/16 21:04:15;;;;;;;7.65;2.38;;;;;;;;;;10278650;28;20081;-63
2022/09/16 21:09:15;;;;;;;5.07;2.10;;;;;;;;;;10278266;28;20040;-63
2022/09/16 21:14:14;;;;;;;3.78;1.88;;;;;;;;;;10278657;28;20493;-63
2022/09/16 21:19:15;;;;;;;6.72;2.40;;;;;;;;;;10278178;28;20049;-63
2022/09/16 21:24:15;;;;;;;5.82;1.90;;;;;;;;;;10277657;28;20057;-63
2022/09/16 21:29:14;;;;;;;3.65;2.22;;;;;;;;;;10278103;28;20057;-62
2022/09/16 21:34:14;;;;;;;7.40;2.55;;;;;;;;;;10277428;28;20049;-62
2022/09/16 21:39:12;;;;;;;7.57;3.08;;;;;;;;;;10277358;28;20044;-64
2022/09/16 21:44:12;;;;;;;7.18;3.28;;;;;;;;;;10276319;28;20084;-62
2022/09/16 21:49:21;;;;;;;6.50;3.20;;;;;;;;;;10277187;28;20053;-63
2022/09/16 21:54:19;;;;;;;6.50;2.28;;;;;;;;;;10277017;28;20414;-63
2022/09/16 21:59:19;;;;;;;7.45;3.03;;;;;;;;;;10277065;28;20056;-62
2022/09/16 22:04:19;;;;;;;3.42;2.50;;;;;;;;;;10276908;28;20459;-63
2022/09/16 22:09:17;;;;;;;3.33;2.00;;;;;;;;;;10276493;28;20465;-63
2022/09/16 22:14:15;;;;;;;3.78;1.73;;;;;;;;;;10275629;28;20044;-64
2022/09/16 22:19:16;;;;;;;6.53;2.05;;;;;;;;;;10276005;28;20052;-63
2022/09/16 22:24:15;;;;;;;4.88;2.08;;;;;;;;;;10275526;28;20088;-63
2022/09/16 22:29:13;;;;;;;6.30;2.22;;;;;;;;;;10275454;28;20522;-64
2022/09/16 22:34:11;;;;;;;8.63;2.05;;;;;;;;;;10274886;28;20055;-63
2022/09/16 22:39:13;;;;;;;4.97;2.47;;;;;;;;;;10275357;28;20075;-63
2022/09/16 22:44:11;;;;;;;4.82;2.35;;;;;;;;;;10275005;28;20073;-62
2022/09/16 22:49:10;;;;;;;4.75;1.98;;;;;;;;;;10275627;28;20537;-64
2022/09/16 22:54:08;;;;;;;6.50;2.40;;;;;;;;;;10279841;28;20041;-64
2022/09/16 22:59:12;;;;;;;5.03;1.80;;;;;;;;;;10283456;28;20506;-63
2022/09/16 23:04:10;;;;;;;;;;;;;;;;;;10284096;28;20089;-64
2022/09/16 23:09:09;;;;;;;6.80;2.15;;;;;;;;;;10283232;28;20042;-63
2022/09/16 23:14:10;;;;;;;8.52;2.25;;;;;;;;;;10283477;28;20149;-63
2022/09/16 23:19:10;;;;;;;7.28;2.45;;;;;;;;;;10282992;28;20044;-63
2022/09/16 23:24:11;;;;;;;5.00;1.92;;;;;;;;;;10282068;28;20092;-63
2022/09/16 23:29:11;;;;;;;13.75;2.90;;;;;;;;;;10282930;28;20045;-63
2022/09/16 23:34:12;;;;;;;4.47;1.80;;;;;;;;;;10282499;28;20056;-63
2022/09/16 23:39:12;;;;;;;4.53;1.70;;;;;;;;;;10281454;28;20063;-64
2022/09/16 23:44:13;;;;;;;4.63;1.75;;;;;;;;;;10281713;28;20084;-64
2022/09/16 23:49:11;;;;;;;8.32;1.98;;;;;;;;;;10280977;28;20080;-63
2022/09/16 23:54:10;;;;;;;8.50;1.95;;;;;;;;;;10280576;28;20049;-63
2022/09/16 23:59:08;;;;;;;2.42;1.65;;;;;;;;;;10280993;28;20060;-63
